sensor_id;sensor_type;location;lat;lon;timestamp;temperature;humidity
74822;DHT22;63353;48.702;8.884;2024-02-15T00:00:10;8.00;99.90
74822;DHT22;63353;48.702;8.884;2024-02-15T00:02:36;8.10;99.90
74822;DHT22;63353;48.702;8.884;2024-02-15T00:05:02;8.10;99.90
74822;DHT22;63353;48.702;8.884;2024-02-15T00:07:27;8.10;99.90
74822;DHT22;63353;48.702;8.884;2024-02-15T00:09:53;8.10;99.90
74822;DHT22;63353;48.702;8.884;2024-02-15T00:12:19;8.20;99.90
74822;DHT22;63353;48.702;8.884;2024-02-15T00:14:45;8.20;99.90
74822;DHT22;63353;48.702;8.884;2024-02-15T00:17:11;8.40;99.90
74822;DHT22;63353;48.702;8.884;2024-02-15T00:19:37;8.30;99.90
74822;DHT22;63353;48.702;8.884;2024-02-15T00:22:05;8.40;99.90
74822;DHT22;63353;48.702;8.884;2024-02-15T00:24:31;8.30;99.90
74822;DHT22;63353;48.702;8.884;2024-02-15T00:26:57;8.30;99.90
74822;DHT22;63353;48.702;8.884;2024-02-15T00:29:22;8.30;99.90
74822;DHT22;63353;48.702;8.884;2024-02-15T00:31:49;8.30;99.90
74822;DHT22;63353;48.702;8.884;2024-02-15T00:34:15;8.30;99.90
74822;DHT22;63353;48.702;8.884;2024-02-15T00:36:45;8.30;99.90
74822;DHT22;63353;48.702;8.884;2024-02-15T00:39:11;8.30;99.90
74822;DHT22;63353;48.702;8.884;2024-02-15T00:41:43;8.30;99.90
74822;DHT22;63353;48.702;8.884;2024-02-15T00:44:10;8.20;99.90
74822;DHT22;63353;48.702;8.884;2024-02-15T00:46:37;8.10;99.90
74822;DHT22;63353;48.702;8.884;2024-02-15T00:49:03;8.00;99.90
74822;DHT22;63353;48.702;8.884;2024-02-15T00:51:32;8.10;99.90
74822;DHT22;63353;48.702;8.884;2024-02-15T00:53:58;8.00;99.90
74822;DHT22;63353;48.702;8.884;2024-02-15T00:56:23;7.90;99.90
74822;DHT22;63353;48.702;8.884;2024-02-15T00:58:50;8.00;99.90
74822;DHT22;63353;48.702;8.884;2024-02-15T01:01:15;8.00;99.90
74822;DHT22;63353;48.702;8.884;2024-02-15T01:03:41;7.90;99.90
74822;DHT22;63353;48.702;8.884;2024-02-15T01:06:07;7.80;99.90
74822;DHT22;63353;48.702;8.884;2024-02-15T01:08:33;7.80;99.90
74822;DHT22;63353;48.702;8.884;2024-02-15T01:10:58;7.90;99.90
74822;DHT22;63353;48.702;8.884;2024-02-15T01:13:24;7.90;99.90
74822;DHT22;63353;48.702;8.884;2024-02-15T01:15:50;8.00;99.90
74822;DHT22;63353;48.702;8.884;2024-02-15T01:18:16;8.00;99.90
74822;DHT22;63353;48.702;8.884;2024-02-15T01:20:42;8.00;99.90
74822;DHT22;63353;48.702;8.884;2024-02-15T01:23:07;7.90;99.90
74822;DHT22;63353;48.702;8.884;2024-02-15T01:25:33;7.90;99.90
74822;DHT22;63353;48.702;8.884;2024-02-15T01:27:59;8.00;99.90
74822;DHT22;63353;48.702;8.884;2024-02-15T01:30:27;7.90;99.90
74822;DHT22;63353;48.702;8.884;2024-02-15T01:32:54;7.90;99.90
74822;DHT22;63353;48.702;8.884;2024-02-15T01:35:20;7.90;99.90
74822;DHT22;63353;48.702;8.884;2024-02-15T01:37:45;7.80;99.90
74822;DHT22;63353;48.702;8.884;2024-02-15T01:40:11;7.80;99.90
74822;DHT22;63353;48.702;8.884;2024-02-15T01:42:38;7.80;99.90
74822;DHT22;63353;48.702;8.884;2024-02-15T01:45:05;7.70;99.90
74822;DHT22;63353;48.702;8.884;2024-02-15T01:47:31;7.80;99.90
74822;DHT22;63353;48.702;8.884;2024-02-15T01:49:57;7.70;99.90
74822;DHT22;63353;48.702;8.884;2024-02-15T01:52:23;7.70;99.90
74822;DHT22;63353;48.702;8.884;2024-02-15T01:54:51;7.70;99.90
74822;DHT22;63353;48.702;8.884;2024-02-15T01:57:18;7.70;99.90
74822;DHT22;63353;48.702;8.884;2024-02-15T01:59:46;7.70;99.90
74822;DHT22;63353;48.702;8.884;2024-02-15T02:02:13;7.70;99.90
74822;DHT22;63353;48.702;8.884;2024-02-15T02:04:40;7.80;99.90
74822;DHT22;63353;48.702;8.884;2024-02-15T02:07:07;7.80;99.90
74822;DHT22;63353;48.702;8.884;2024-02-15T02:09:33;7.70;99.90
74822;DHT22;63353;48.702;8.884;2024-02-15T02:11:59;7.70;99.90
74822;DHT22;63353;48.702;8.884;2024-02-15T02:14:25;7.60;99.90
74822;DHT22;63353;48.702;8.884;2024-02-15T02:16:51;7.40;99.90
74822;DHT22;63353;48.702;8.884;2024-02-15T02:19:17;7.30;99.90
74822;DHT22;63353;48.702;8.884;2024-02-15T02:21:43;7.30;99.90
74822;DHT22;63353;48.702;8.884;2024-02-15T02:24:21;7.40;99.90
74822;DHT22;63353;48.702;8.884;2024-02-15T02:26:47;7.30;99.90
74822;DHT22;63353;48.702;8.884;2024-02-15T02:29:16;7.30;99.90
74822;DHT22;63353;48.702;8.884;2024-02-15T02:31:41;7.40;99.90
74822;DHT22;63353;48.702;8.884;2024-02-15T02:34:08;7.40;99.90
74822;DHT22;63353;48.702;8.884;2024-02-15T02:36:34;7.50;99.90
74822;DHT22;63353;48.702;8.884;2024-02-15T02:39:00;7.40;99.90
74822;DHT22;63353;48.702;8.884;2024-02-15T02:41:29;7.40;99.90
74822;DHT22;63353;48.702;8.884;2024-02-15T02:43:57;7.50;99.90
74822;DHT22;63353;48.702;8.884;2024-02-15T02:46:23;7.50;99.90
74822;DHT22;63353;48.702;8.884;2024-02-15T02:48:49;7.50;99.90
74822;DHT22;63353;48.702;8.884;2024-02-15T02:51:15;7.50;99.90
74822;DHT22;63353;48.702;8.884;2024-02-15T02:53:41;7.60;99.90
74822;DHT22;63353;48.702;8.884;2024-02-15T02:56:06;7.70;99.90
74822;DHT22;63353;48.702;8.884;2024-02-15T02:58:34;7.60;99.90
74822;DHT22;63353;48.702;8.884;2024-02-15T03:01:00;7.60;99.90
74822;DHT22;63353;48.702;8.884;2024-02-15T03:03:26;7.60;99.90
74822;DHT22;63353;48.702;8.884;2024-02-15T03:05:52;7.50;99.90
74822;DHT22;63353;48.702;8.884;2024-02-15T03:08:19;7.60;99.90
74822;DHT22;63353;48.702;8.884;2024-02-15T03:10:46;7.60;99.90
74822;DHT22;63353;48.702;8.884;2024-02-15T03:13:11;7.60;99.90
74822;DHT22;63353;48.702;8.884;2024-02-15T03:15:37;7.50;99.90
74822;DHT22;63353;48.702;8.884;2024-02-15T03:18:03;7.50;99.90
74822;DHT22;63353;48.702;8.884;2024-02-15T03:20:37;7.50;99.90
74822;DHT22;63353;48.702;8.884;2024-02-15T03:23:03;7.50;99.90
74822;DHT22;63353;48.702;8.884;2024-02-15T03:25:29;7.50;99.90
74822;DHT22;63353;48.702;8.884;2024-02-15T03:27:56;7.40;99.90
74822;DHT22;63353;48.702;8.884;2024-02-15T03:30:23;7.40;99.90
74822;DHT22;63353;48.702;8.884;2024-02-15T03:32:50;7.40;99.90
74822;DHT22;63353;48.702;8.884;2024-02-15T03:35:19;7.30;99.90
74822;DHT22;63353;48.702;8.884;2024-02-15T03:37:45;7.20;99.90
74822;DHT22;63353;48.702;8.884;2024-02-15T03:40:11;7.30;99.90
74822;DHT22;63353;48.702;8.884;2024-02-15T03:42:37;7.30;99.90
74822;DHT22;63353;48.702;8.884;2024-02-15T03:45:04;7.40;99.90
74822;DHT22;63353;48.702;8.884;2024-02-15T03:47:35;7.50;99.90
74822;DHT22;63353;48.702;8.884;2024-02-15T03:50:07;7.50;99.90
74822;DHT22;63353;48.702;8.884;2024-02-15T03:52:36;7.50;99.90
74822;DHT22;63353;48.702;8.884;2024-02-15T03:55:02;7.50;99.90
74822;DHT22;63353;48.702;8.884;2024-02-15T03:57:28;7.50;99.90
74822;DHT22;63353;48.702;8.884;2024-02-15T03:59:54;7.50;99.90
74822;DHT22;63353;48.702;8.884;2024-02-15T04:02:23;7.50;99.90
74822;DHT22;63353;48.702;8.884;2024-02-15T04:04:52;7.50;99.90
74822;DHT22;63353;48.702;8.884;2024-02-15T04:07:19;7.40;99.90
74822;DHT22;63353;48.702;8.884;2024-02-15T04:09:48;7.40;99.90
74822;DHT22;63353;48.702;8.884;2024-02-15T04:12:13;7.40;99.90
74822;DHT22;63353;48.702;8.884;2024-02-15T04:14:48;7.30;99.90
74822;DHT22;63353;48.702;8.884;2024-02-15T04:17:14;7.30;99.90
74822;DHT22;63353;48.702;8.884;2024-02-15T04:19:47;7.30;99.90
74822;DHT22;63353;48.702;8.884;2024-02-15T04:22:14;7.30;99.90
74822;DHT22;63353;48.702;8.884;2024-02-15T04:24:45;7.30;99.90
74822;DHT22;63353;48.702;8.884;2024-02-15T04:27:11;7.30;99.90
74822;DHT22;63353;48.702;8.884;2024-02-15T04:29:40;7.30;99.90
74822;DHT22;63353;48.702;8.884;2024-02-15T04:32:10;7.30;99.90
74822;DHT22;63353;48.702;8.884;2024-02-15T04:34:39;7.30;99.90
74822;DHT22;63353;48.702;8.884;2024-02-15T04:37:06;7.40;99.90
74822;DHT22;63353;48.702;8.884;2024-02-15T04:39:37;7.50;99.90
74822;DHT22;63353;48.702;8.884;2024-02-15T04:42:04;7.40;99.90
74822;DHT22;63353;48.702;8.884;2024-02-15T04:44:33;7.40;99.90
74822;DHT22;63353;48.702;8.884;2024-02-15T04:47:01;7.40;99.90
74822;DHT22;63353;48.702;8.884;2024-02-15T04:49:28;7.40;99.90
74822;DHT22;63353;48.702;8.884;2024-02-15T04:51:54;7.40;99.90
74822;DHT22;63353;48.702;8.884;2024-02-15T04:54:23;7.30;99.90
74822;DHT22;63353;48.702;8.884;2024-02-15T04:56:48;7.30;99.90
74822;DHT22;63353;48.702;8.884;2024-02-15T04:59:18;7.30;99.90
74822;DHT22;63353;48.702;8.884;2024-02-15T05:01:45;7.30;99.90
74822;DHT22;63353;48.702;8.884;2024-02-15T05:04:11;7.20;99.90
74822;DHT22;63353;48.702;8.884;2024-02-15T05:06:38;7.30;99.90
74822;DHT22;63353;48.702;8.884;2024-02-15T05:09:04;7.20;99.90
74822;DHT22;63353;48.702;8.884;2024-02-15T05:11:36;7.20;99.90
74822;DHT22;63353;48.702;8.884;2024-02-15T05:14:05;7.10;99.90
74822;DHT22;63353;48.702;8.884;2024-02-15T05:16:35;7.10;99.90
74822;DHT22;63353;48.702;8.884;2024-02-15T05:19:07;7.10;99.90
74822;DHT22;63353;48.702;8.884;2024-02-15T05:21:33;7.10;99.90
74822;DHT22;63353;48.702;8.884;2024-02-15T05:23:59;7.10;99.90
74822;DHT22;63353;48.702;8.884;2024-02-15T05:26:25;7.00;99.90
74822;DHT22;63353;48.702;8.884;2024-02-15T05:28:50;7.00;99.90
74822;DHT22;63353;48.702;8.884;2024-02-15T05:31:20;7.00;99.90
74822;DHT22;63353;48.702;8.884;2024-02-15T05:33:46;6.90;99.90
74822;DHT22;63353;48.702;8.884;2024-02-15T05:36:16;6.90;99.90
74822;DHT22;63353;48.702;8.884;2024-02-15T05:38:49;7.00;99.90
74822;DHT22;63353;48.702;8.884;2024-02-15T05:41:15;7.00;99.90
74822;DHT22;63353;48.702;8.884;2024-02-15T05:43:42;7.00;99.90
74822;DHT22;63353;48.702;8.884;2024-02-15T05:46:08;6.90;99.90
74822;DHT22;63353;48.702;8.884;2024-02-15T05:48:35;6.90;99.90
74822;DHT22;63353;48.702;8.884;2024-02-15T05:51:01;6.80;99.90
74822;DHT22;63353;48.702;8.884;2024-02-15T05:53:27;6.70;99.90
74822;DHT22;63353;48.702;8.884;2024-02-15T05:55:54;6.70;99.90
74822;DHT22;63353;48.702;8.884;2024-02-15T05:58:20;6.70;99.90
74822;DHT22;63353;48.702;8.884;2024-02-15T06:00:46;6.60;99.90
74822;DHT22;63353;48.702;8.884;2024-02-15T06:03:15;6.50;99.90
74822;DHT22;63353;48.702;8.884;2024-02-15T06:05:41;6.60;99.90
74822;DHT22;63353;48.702;8.884;2024-02-15T06:08:07;6.60;99.90
74822;DHT22;63353;48.702;8.884;2024-02-15T06:10:33;6.60;99.90
74822;DHT22;63353;48.702;8.884;2024-02-15T06:12:59;6.60;99.90
74822;DHT22;63353;48.702;8.884;2024-02-15T06:15:25;6.50;99.90
74822;DHT22;63353;48.702;8.884;2024-02-15T06:17:52;6.40;99.90
74822;DHT22;63353;48.702;8.884;2024-02-15T06:20:18;6.30;99.90
74822;DHT22;63353;48.702;8.884;2024-02-15T06:22:45;6.30;99.90
74822;DHT22;63353;48.702;8.884;2024-02-15T06:25:12;6.30;99.90
74822;DHT22;63353;48.702;8.884;2024-02-15T06:27:39;6.20;99.90
74822;DHT22;63353;48.702;8.884;2024-02-15T06:30:11;6.10;99.90
74822;DHT22;63353;48.702;8.884;2024-02-15T06:32:56;6.10;99.90
74822;DHT22;63353;48.702;8.884;2024-02-15T06:35:40;6.10;99.90
74822;DHT22;63353;48.702;8.884;2024-02-15T06:38:25;6.00;99.90
74822;DHT22;63353;48.702;8.884;2024-02-15T06:41:09;5.90;99.90
74822;DHT22;63353;48.702;8.884;2024-02-15T06:43:35;5.90;99.90
74822;DHT22;63353;48.702;8.884;2024-02-15T06:46:02;5.90;99.90
74822;DHT22;63353;48.702;8.884;2024-02-15T06:48:28;6.00;99.90
74822;DHT22;63353;48.702;8.884;2024-02-15T06:50:54;6.00;99.90
74822;DHT22;63353;48.702;8.884;2024-02-15T06:53:20;6.00;99.90
74822;DHT22;63353;48.702;8.884;2024-02-15T06:55:46;6.00;99.90
74822;DHT22;63353;48.702;8.884;2024-02-15T06:58:17;6.00;99.90
74822;DHT22;63353;48.702;8.884;2024-02-15T07:00:48;5.90;99.90
74822;DHT22;63353;48.702;8.884;2024-02-15T07:03:15;5.90;99.90
74822;DHT22;63353;48.702;8.884;2024-02-15T07:05:42;5.80;99.90
74822;DHT22;63353;48.702;8.884;2024-02-15T07:08:08;5.80;99.90
74822;DHT22;63353;48.702;8.884;2024-02-15T07:10:38;5.80;99.90
74822;DHT22;63353;48.702;8.884;2024-02-15T07:13:05;5.70;99.90
74822;DHT22;63353;48.702;8.884;2024-02-15T07:15:33;5.80;99.90
74822;DHT22;63353;48.702;8.884;2024-02-15T07:18:07;5.90;99.90
74822;DHT22;63353;48.702;8.884;2024-02-15T07:20:33;6.00;99.90
74822;DHT22;63353;48.702;8.884;2024-02-15T07:22:59;6.10;99.90
74822;DHT22;63353;48.702;8.884;2024-02-15T07:25:25;6.20;99.90
74822;DHT22;63353;48.702;8.884;2024-02-15T07:27:51;6.40;99.90
74822;DHT22;63353;48.702;8.884;2024-02-15T07:30:18;6.50;99.90
74822;DHT22;63353;48.702;8.884;2024-02-15T07:32:43;6.70;99.90
74822;DHT22;63353;48.702;8.884;2024-02-15T07:35:09;6.70;99.90
74822;DHT22;63353;48.702;8.884;2024-02-15T07:37:35;6.80;99.90
74822;DHT22;63353;48.702;8.884;2024-02-15T07:40:01;7.00;99.90
74822;DHT22;63353;48.702;8.884;2024-02-15T07:42:29;7.20;99.90
74822;DHT22;63353;48.702;8.884;2024-02-15T07:44:55;7.40;99.90
74822;DHT22;63353;48.702;8.884;2024-02-15T07:47:20;7.40;99.90
74822;DHT22;63353;48.702;8.884;2024-02-15T07:49:50;7.50;99.90
74822;DHT22;63353;48.702;8.884;2024-02-15T07:52:15;7.50;99.90
74822;DHT22;63353;48.702;8.884;2024-02-15T07:54:41;7.60;99.90
74822;DHT22;63353;48.702;8.884;2024-02-15T07:57:07;7.70;99.90
74822;DHT22;63353;48.702;8.884;2024-02-15T07:59:34;7.80;99.90
74822;DHT22;63353;48.702;8.884;2024-02-15T08:02:01;7.80;99.90
74822;DHT22;63353;48.702;8.884;2024-02-15T08:04:27;7.90;99.90
74822;DHT22;63353;48.702;8.884;2024-02-15T08:06:54;8.00;99.90
74822;DHT22;63353;48.702;8.884;2024-02-15T08:09:20;8.10;99.90
74822;DHT22;63353;48.702;8.884;2024-02-15T08:11:52;8.20;99.90
74822;DHT22;63353;48.702;8.884;2024-02-15T08:14:18;8.30;99.90
74822;DHT22;63353;48.702;8.884;2024-02-15T08:16:45;8.40;99.90
74822;DHT22;63353;48.702;8.884;2024-02-15T08:19:11;8.40;99.90
74822;DHT22;63353;48.702;8.884;2024-02-15T08:21:37;8.50;99.90
74822;DHT22;63353;48.702;8.884;2024-02-15T08:24:04;8.50;99.90
74822;DHT22;63353;48.702;8.884;2024-02-15T08:28:57;8.60;99.90
74822;DHT22;63353;48.702;8.884;2024-02-15T08:31:23;8.60;99.90
74822;DHT22;63353;48.702;8.884;2024-02-15T08:33:49;8.60;99.90
74822;DHT22;63353;48.702;8.884;2024-02-15T08:36:15;8.60;99.90
74822;DHT22;63353;48.702;8.884;2024-02-15T08:38:41;8.60;99.90
74822;DHT22;63353;48.702;8.884;2024-02-15T08:41:06;8.60;99.90
74822;DHT22;63353;48.702;8.884;2024-02-15T08:43:33;8.60;99.90
74822;DHT22;63353;48.702;8.884;2024-02-15T08:45:59;8.70;99.90
74822;DHT22;63353;48.702;8.884;2024-02-15T08:48:26;8.80;99.90
74822;DHT22;63353;48.702;8.884;2024-02-15T08:50:52;8.80;99.90
74822;DHT22;63353;48.702;8.884;2024-02-15T08:53:17;8.80;99.90
74822;DHT22;63353;48.702;8.884;2024-02-15T08:55:47;9.00;99.90
74822;DHT22;63353;48.702;8.884;2024-02-15T08:58:13;9.20;99.90
74822;DHT22;63353;48.702;8.884;2024-02-15T09:00:39;9.30;99.90
74822;DHT22;63353;48.702;8.884;2024-02-15T09:03:10;9.50;99.90
74822;DHT22;63353;48.702;8.884;2024-02-15T09:05:36;9.50;99.90
74822;DHT22;63353;48.702;8.884;2024-02-15T09:08:02;9.70;99.90
74822;DHT22;63353;48.702;8.884;2024-02-15T09:10:30;9.90;99.90
74822;DHT22;63353;48.702;8.884;2024-02-15T09:12:56;10.20;99.90
74822;DHT22;63353;48.702;8.884;2024-02-15T09:15:22;10.40;99.90
74822;DHT22;63353;48.702;8.884;2024-02-15T09:17:48;10.50;99.90
74822;DHT22;63353;48.702;8.884;2024-02-15T09:20:16;10.80;99.90
74822;DHT22;63353;48.702;8.884;2024-02-15T09:22:48;10.90;99.90
74822;DHT22;63353;48.702;8.884;2024-02-15T09:25:14;11.00;99.90
74822;DHT22;63353;48.702;8.884;2024-02-15T09:27:40;11.10;99.90
74822;DHT22;63353;48.702;8.884;2024-02-15T09:30:06;11.20;99.90
74822;DHT22;63353;48.702;8.884;2024-02-15T09:32:35;11.30;99.90
74822;DHT22;63353;48.702;8.884;2024-02-15T09:35:01;11.50;99.90
74822;DHT22;63353;48.702;8.884;2024-02-15T09:37:27;11.80;99.90
74822;DHT22;63353;48.702;8.884;2024-02-15T09:39:54;12.10;99.90
74822;DHT22;63353;48.702;8.884;2024-02-15T09:42:20;12.10;99.90
74822;DHT22;63353;48.702;8.884;2024-02-15T09:44:46;12.10;99.90
74822;DHT22;63353;48.702;8.884;2024-02-15T09:47:16;12.10;99.90
74822;DHT22;63353;48.702;8.884;2024-02-15T09:49:43;12.10;99.90
74822;DHT22;63353;48.702;8.884;2024-02-15T09:52:09;12.40;99.90
74822;DHT22;63353;48.702;8.884;2024-02-15T09:54:42;12.50;99.90
74822;DHT22;63353;48.702;8.884;2024-02-15T09:57:09;12.50;99.90
74822;DHT22;63353;48.702;8.884;2024-02-15T09:59:36;12.70;99.90
74822;DHT22;63353;48.702;8.884;2024-02-15T10:02:02;12.70;99.90
74822;DHT22;63353;48.702;8.884;2024-02-15T10:04:28;12.80;99.90
74822;DHT22;63353;48.702;8.884;2024-02-15T10:06:54;13.10;99.90
74822;DHT22;63353;48.702;8.884;2024-02-15T10:12:00;13.30;99.90
74822;DHT22;63353;48.702;8.884;2024-02-15T10:14:29;13.70;99.90
74822;DHT22;63353;48.702;8.884;2024-02-15T10:16:55;13.90;99.90
74822;DHT22;63353;48.702;8.884;2024-02-15T10:19:22;14.20;99.90
74822;DHT22;63353;48.702;8.884;2024-02-15T10:21:51;14.30;99.90
74822;DHT22;63353;48.702;8.884;2024-02-15T10:24:21;14.50;99.90
74822;DHT22;63353;48.702;8.884;2024-02-15T10:26:49;14.50;99.90
74822;DHT22;63353;48.702;8.884;2024-02-15T10:29:14;14.70;99.90
74822;DHT22;63353;48.702;8.884;2024-02-15T10:31:59;14.80;99.90
74822;DHT22;63353;48.702;8.884;2024-02-15T10:34:25;14.90;99.90
74822;DHT22;63353;48.702;8.884;2024-02-15T10:36:56;14.90;99.90
74822;DHT22;63353;48.702;8.884;2024-02-15T10:39:35;15.00;99.90
74822;DHT22;63353;48.702;8.884;2024-02-15T10:42:01;15.10;99.90
74822;DHT22;63353;48.702;8.884;2024-02-15T10:44:27;15.30;99.90
74822;DHT22;63353;48.702;8.884;2024-02-15T10:46:53;15.30;99.90
74822;DHT22;63353;48.702;8.884;2024-02-15T10:49:21;15.40;99.90
74822;DHT22;63353;48.702;8.884;2024-02-15T10:51:57;15.30;99.90
74822;DHT22;63353;48.702;8.884;2024-02-15T10:54:47;15.50;99.90
74822;DHT22;63353;48.702;8.884;2024-02-15T10:57:13;15.60;99.90
74822;DHT22;63353;48.702;8.884;2024-02-15T11:00:02;15.70;99.90
74822;DHT22;63353;48.702;8.884;2024-02-15T11:02:42;15.70;99.90
74822;DHT22;63353;48.702;8.884;2024-02-15T11:05:14;15.70;99.90
74822;DHT22;63353;48.702;8.884;2024-02-15T11:07:46;15.80;99.90
74822;DHT22;63353;48.702;8.884;2024-02-15T11:10:12;16.00;99.90
74822;DHT22;63353;48.702;8.884;2024-02-15T11:12:43;16.00;99.90
74822;DHT22;63353;48.702;8.884;2024-02-15T11:15:09;16.10;99.90
74822;DHT22;63353;48.702;8.884;2024-02-15T11:20:03;16.40;99.90
74822;DHT22;63353;48.702;8.884;2024-02-15T11:22:34;16.30;99.90
74822;DHT22;63353;48.702;8.884;2024-02-15T11:25:06;16.30;99.90
74822;DHT22;63353;48.702;8.884;2024-02-15T11:27:37;16.40;99.90
74822;DHT22;63353;48.702;8.884;2024-02-15T11:30:06;16.60;99.90
74822;DHT22;63353;48.702;8.884;2024-02-15T11:32:45;16.50;99.90
74822;DHT22;63353;48.702;8.884;2024-02-15T11:35:30;16.40;99.90
74822;DHT22;63353;48.702;8.884;2024-02-15T11:37:56;16.50;99.90
74822;DHT22;63353;48.702;8.884;2024-02-15T11:46:14;16.60;99.90
74822;DHT22;63353;48.702;8.884;2024-02-15T11:48:40;16.50;99.90
74822;DHT22;63353;48.702;8.884;2024-02-15T11:51:06;16.50;99.90
74822;DHT22;63353;48.702;8.884;2024-02-15T11:53:33;16.50;99.90
74822;DHT22;63353;48.702;8.884;2024-02-15T11:56:01;16.60;99.90
74822;DHT22;63353;48.702;8.884;2024-02-15T11:58:30;16.60;99.90
74822;DHT22;63353;48.702;8.884;2024-02-15T12:01:08;16.60;99.90
74822;DHT22;63353;48.702;8.884;2024-02-15T12:03:54;16.70;99.90
74822;DHT22;63353;48.702;8.884;2024-02-15T12:06:39;16.60;99.90
74822;DHT22;63353;48.702;8.884;2024-02-15T12:09:23;16.60;99.90
74822;DHT22;63353;48.702;8.884;2024-02-15T12:12:09;16.50;99.90
74822;DHT22;63353;48.702;8.884;2024-02-15T12:15:03;16.30;99.90
74822;DHT22;63353;48.702;8.884;2024-02-15T12:17:48;15.90;99.90
74822;DHT22;63353;48.702;8.884;2024-02-15T12:20:32;16.20;99.90
74822;DHT22;63353;48.702;8.884;2024-02-15T12:22:59;16.20;99.90
74822;DHT22;63353;48.702;8.884;2024-02-15T12:25:28;16.40;99.90
74822;DHT22;63353;48.702;8.884;2024-02-15T12:27:59;16.50;99.90
74822;DHT22;63353;48.702;8.884;2024-02-15T12:30:26;16.40;99.90
74822;DHT22;63353;48.702;8.884;2024-02-15T12:33:09;16.50;99.90
74822;DHT22;63353;48.702;8.884;2024-02-15T12:35:36;16.50;99.90
74822;DHT22;63353;48.702;8.884;2024-02-15T12:38:02;16.60;99.90
74822;DHT22;63353;48.702;8.884;2024-02-15T12:40:38;16.70;99.90
74822;DHT22;63353;48.702;8.884;2024-02-15T12:43:08;16.70;99.90
74822;DHT22;63353;48.702;8.884;2024-02-15T12:45:39;16.60;99.90
74822;DHT22;63353;48.702;8.884;2024-02-15T12:48:06;16.80;99.90
74822;DHT22;63353;48.702;8.884;2024-02-15T12:50:32;16.60;99.90
74822;DHT22;63353;48.702;8.884;2024-02-15T12:52:58;16.40;99.90
74822;DHT22;63353;48.702;8.884;2024-02-15T12:55:35;16.40;99.90
74822;DHT22;63353;48.702;8.884;2024-02-15T12:58:14;16.40;99.90
74822;DHT22;63353;48.702;8.884;2024-02-15T13:00:41;16.40;99.90
74822;DHT22;63353;48.702;8.884;2024-02-15T13:03:08;16.40;99.90
74822;DHT22;63353;48.702;8.884;2024-02-15T13:05:35;16.40;99.90
74822;DHT22;63353;48.702;8.884;2024-02-15T13:08:04;16.50;99.90
74822;DHT22;63353;48.702;8.884;2024-02-15T13:10:35;16.40;99.90
74822;DHT22;63353;48.702;8.884;2024-02-15T13:13:01;16.50;99.90
74822;DHT22;63353;48.702;8.884;2024-02-15T13:15:27;16.50;99.90
74822;DHT22;63353;48.702;8.884;2024-02-15T13:17:58;16.40;99.90
74822;DHT22;63353;48.702;8.884;2024-02-15T13:20:24;16.30;99.90
74822;DHT22;63353;48.702;8.884;2024-02-15T13:23:01;16.30;99.90
74822;DHT22;63353;48.702;8.884;2024-02-15T13:25:32;16.50;99.90
74822;DHT22;63353;48.702;8.884;2024-02-15T13:27:57;16.70;99.90
74822;DHT22;63353;48.702;8.884;2024-02-15T13:30:23;17.20;99.90
74822;DHT22;63353;48.702;8.884;2024-02-15T13:32:53;16.90;99.90
74822;DHT22;63353;48.702;8.884;2024-02-15T13:35:22;17.00;99.90
74822;DHT22;63353;48.702;8.884;2024-02-15T13:37:50;17.30;99.90
74822;DHT22;63353;48.702;8.884;2024-02-15T13:40:26;17.20;99.90
74822;DHT22;63353;48.702;8.884;2024-02-15T13:42:55;17.20;99.90
74822;DHT22;63353;48.702;8.884;2024-02-15T13:45:28;17.10;99.90
74822;DHT22;63353;48.702;8.884;2024-02-15T13:47:59;17.00;99.90
74822;DHT22;63353;48.702;8.884;2024-02-15T13:50:29;16.90;99.90
74822;DHT22;63353;48.702;8.884;2024-02-15T13:52:55;16.90;99.90
74822;DHT22;63353;48.702;8.884;2024-02-15T13:55:21;16.80;99.90
74822;DHT22;63353;48.702;8.884;2024-02-15T13:57:47;16.80;99.90
74822;DHT22;63353;48.702;8.884;2024-02-15T14:00:15;16.60;99.90
74822;DHT22;63353;48.702;8.884;2024-02-15T14:02:54;16.60;99.90
74822;DHT22;63353;48.702;8.884;2024-02-15T14:05:22;16.50;99.90
74822;DHT22;63353;48.702;8.884;2024-02-15T14:07:51;16.60;99.90
74822;DHT22;63353;48.702;8.884;2024-02-15T14:10:21;16.60;99.90
74822;DHT22;63353;48.702;8.884;2024-02-15T14:12:51;16.50;99.90
74822;DHT22;63353;48.702;8.884;2024-02-15T14:15:43;16.60;99.90
74822;DHT22;63353;48.702;8.884;2024-02-15T14:18:11;16.90;99.90
74822;DHT22;63353;48.702;8.884;2024-02-15T14:20:39;17.10;99.90
74822;DHT22;63353;48.702;8.884;2024-02-15T14:23:10;17.10;99.90
74822;DHT22;63353;48.702;8.884;2024-02-15T14:25:39;17.20;99.90
74822;DHT22;63353;48.702;8.884;2024-02-15T14:28:05;17.00;99.90
74822;DHT22;63353;48.702;8.884;2024-02-15T14:30:33;17.10;99.90
74822;DHT22;63353;48.702;8.884;2024-02-15T14:33:17;17.40;99.90
74822;DHT22;63353;48.702;8.884;2024-02-15T14:35:45;17.60;99.90
74822;DHT22;63353;48.702;8.884;2024-02-15T14:38:12;17.80;99.90
74822;DHT22;63353;48.702;8.884;2024-02-15T14:40:45;17.70;99.90
74822;DHT22;63353;48.702;8.884;2024-02-15T14:43:14;17.60;99.90
74822;DHT22;63353;48.702;8.884;2024-02-15T14:45:40;17.50;99.90
74822;DHT22;63353;48.702;8.884;2024-02-15T14:48:07;17.60;99.90
74822;DHT22;63353;48.702;8.884;2024-02-15T14:50:36;17.40;99.90
74822;DHT22;63353;48.702;8.884;2024-02-15T14:53:02;17.10;99.90
74822;DHT22;63353;48.702;8.884;2024-02-15T14:55:28;17.20;99.90
74822;DHT22;63353;48.702;8.884;2024-02-15T14:57:57;17.10;99.90
74822;DHT22;63353;48.702;8.884;2024-02-15T15:00:23;16.80;99.90
74822;DHT22;63353;48.702;8.884;2024-02-15T15:02:52;16.80;99.90
74822;DHT22;63353;48.702;8.884;2024-02-15T15:05:18;16.60;99.90
74822;DHT22;63353;48.702;8.884;2024-02-15T15:08:02;16.60;99.90
74822;DHT22;63353;48.702;8.884;2024-02-15T15:10:47;16.50;99.90
74822;DHT22;63353;48.702;8.884;2024-02-15T15:13:35;16.60;99.90
74822;DHT22;63353;48.702;8.884;2024-02-15T15:16:01;16.30;99.90
74822;DHT22;63353;48.702;8.884;2024-02-15T15:18:28;16.20;99.90
74822;DHT22;63353;48.702;8.884;2024-02-15T15:20:59;15.90;99.90
74822;DHT22;63353;48.702;8.884;2024-02-15T15:23:27;16.00;99.90
74822;DHT22;63353;48.702;8.884;2024-02-15T15:26:02;15.90;99.90
74822;DHT22;63353;48.702;8.884;2024-02-15T15:28:28;15.80;99.90
74822;DHT22;63353;48.702;8.884;2024-02-15T15:30:54;15.80;99.90
74822;DHT22;63353;48.702;8.884;2024-02-15T15:33:20;15.60;99.90
74822;DHT22;63353;48.702;8.884;2024-02-15T15:35:47;15.50;99.90
74822;DHT22;63353;48.702;8.884;2024-02-15T15:38:14;15.50;99.90
74822;DHT22;63353;48.702;8.884;2024-02-15T15:40:40;15.40;99.90
74822;DHT22;63353;48.702;8.884;2024-02-15T15:43:07;15.30;99.90
74822;DHT22;63353;48.702;8.884;2024-02-15T15:45:36;15.20;99.90
74822;DHT22;63353;48.702;8.884;2024-02-15T15:48:02;15.20;99.90
74822;DHT22;63353;48.702;8.884;2024-02-15T15:50:31;15.10;99.90
74822;DHT22;63353;48.702;8.884;2024-02-15T15:53:03;14.90;99.90
74822;DHT22;63353;48.702;8.884;2024-02-15T15:55:30;14.70;99.90
74822;DHT22;63353;48.702;8.884;2024-02-15T15:57:56;14.60;99.90
74822;DHT22;63353;48.702;8.884;2024-02-15T16:00:22;14.60;99.90